createdAt,value
2022-09-12T00:02:29.727Z,12.40
2022-09-12T00:07:31.773Z,11.70
2022-09-12T00:12:33.213Z,10.90
2022-09-12T00:17:36.427Z,11.60
2022-09-12T00:20:10.991Z,11.20
2022-09-12T00:22:42.497Z,12.40
2022-09-12T00:25:14.108Z,9.10
2022-09-12T00:27:45.547Z,12.40
2022-09-12T00:32:47.295Z,10.30
2022-09-12T00:35:18.892Z,9.00
2022-09-12T00:37:50.346Z,8.70
2022-09-12T00:42:52.376Z,16.10
2022-09-12T00:45:29.544Z,14.60
2022-09-12T00:48:04.424Z,10.50
2022-09-12T00:50:35.926Z,13.90
2022-09-12T00:55:45.360Z,9.70
2022-09-12T00:58:21.464Z,8.00
2022-09-12T01:00:53.407Z,14.40
2022-09-12T01:03:26.034Z,9.70
2022-09-12T01:06:05.768Z,11.60
2022-09-12T01:08:39.032Z,11.00
2022-09-12T01:11:12.900Z,9.00
2022-09-12T01:13:45.036Z,12.10
2022-09-12T01:16:17.118Z,9.80
2022-09-12T01:18:58.669Z,10.70
2022-09-12T01:21:43.572Z,11.20
2022-09-12T01:24:43.498Z,12.40
2022-09-12T01:27:24.458Z,11.20
2022-09-12T01:30:31.068Z,11.10
2022-09-12T01:33:29.640Z,13.10
2022-09-12T01:36:19.356Z,13.70
2022-09-12T01:38:59.248Z,12.20
2022-09-12T01:41:39.334Z,10.60
2022-09-12T01:44:24.265Z,10.60
2022-09-12T01:47:00.377Z,14.50
2022-09-12T01:49:48.714Z,11.60
2022-09-12T01:52:25.595Z,10.50
2022-09-12T01:55:06.484Z,11.80
2022-09-12T01:57:46.243Z,11.10
2022-09-12T02:00:18.242Z,16.20
2022-09-12T02:02:54.665Z,10.60
2022-09-12T02:05:30.803Z,13.20
2022-09-12T02:08:08.110Z,9.10
2022-09-12T02:10:46.236Z,10.80
2022-09-12T02:13:24.263Z,11.50
2022-09-12T02:16:02.114Z,12.20
2022-09-12T02:18:35.266Z,12.60
2022-09-12T02:21:08.783Z,12.00
2022-09-12T02:23:43.431Z,11.70
2022-09-12T02:26:21.668Z,9.60
2022-09-12T02:28:54.049Z,9.70
2022-09-12T02:34:11.332Z,10.20
2022-09-12T02:36:50.998Z,10.80
2022-09-12T02:39:22.588Z,14.80
2022-09-12T02:41:56.504Z,12.50
2022-09-12T02:44:30.505Z,8.40
2022-09-12T02:47:05.847Z,12.90
2022-09-12T02:49:37.732Z,13.00
2022-09-12T02:52:09.396Z,13.20
2022-09-12T02:54:41.111Z,12.20
2022-09-12T02:57:22.796Z,14.00
2022-09-12T02:59:57.927Z,9.50
2022-09-12T03:02:41.509Z,14.30
2022-09-12T03:05:25.340Z,14.90
2022-09-12T03:08:14.059Z,13.60
2022-09-12T03:11:00.942Z,16.60
2022-09-12T03:13:41.253Z,10.90
2022-09-12T03:16:23.143Z,10.80
2022-09-12T03:19:03.941Z,15.20
2022-09-12T03:21:43.061Z,42.00
2022-09-12T03:24:18.532Z,38.80
2022-09-12T03:26:55.828Z,38.40
2022-09-12T03:29:29.790Z,215.20
2022-09-12T03:32:01.638Z,202.80
2022-09-12T03:34:33.228Z,28.30
2022-09-12T03:37:05.054Z,15.40
2022-09-12T03:39:36.655Z,11.40
2022-09-12T03:42:08.272Z,12.80
2022-09-12T03:44:39.694Z,14.50
2022-09-12T03:47:11.482Z,11.10
2022-09-12T03:49:42.980Z,12.00
2022-09-12T03:54:44.437Z,11.80
2022-09-12T03:57:15.875Z,13.70
2022-09-12T04:02:17.504Z,12.50
2022-09-12T04:04:49.129Z,12.20
2022-09-12T04:09:50.566Z,19.00
2022-09-12T04:12:22.242Z,9.40
2022-09-12T04:14:53.726Z,11.30
2022-09-12T04:17:25.188Z,12.70
2022-09-12T04:22:26.537Z,12.00
2022-09-12T04:24:57.970Z,14.30
2022-09-12T04:30:00.174Z,13.00
2022-09-12T04:32:32.876Z,11.40
2022-09-12T04:35:04.829Z,10.40
2022-09-12T04:37:36.503Z,14.20
2022-09-12T04:40:09.960Z,11.80
2022-09-12T04:42:41.447Z,13.60
2022-09-12T04:45:13.678Z,12.80
2022-09-12T04:47:46.491Z,14.00
2022-09-12T04:50:18.577Z,15.20
2022-09-12T04:52:53.431Z,15.80
2022-09-12T04:55:25.532Z,14.00
2022-09-12T04:57:56.940Z,18.60
2022-09-12T05:00:29.013Z,17.40
2022-09-12T05:03:00.482Z,17.30
2022-09-12T05:08:02.005Z,16.20
2022-09-12T05:13:04.602Z,14.70
2022-09-12T05:15:36.054Z,17.70
2022-09-12T05:18:07.589Z,11.30
2022-09-12T05:23:09.086Z,13.20
2022-09-12T05:25:40.680Z,10.30
2022-09-12T05:30:42.092Z,12.90
2022-09-12T05:35:51.769Z,9.60
2022-09-12T05:38:24.370Z,11.00
2022-09-12T05:40:55.868Z,10.10
2022-09-12T05:46:03.379Z,11.30
2022-09-12T05:48:35.252Z,11.50
2022-09-12T05:51:09.292Z,11.00
2022-09-12T05:53:42.066Z,9.00
2022-09-12T05:56:15.814Z,11.40
2022-09-12T05:58:49.718Z,10.40
2022-09-12T06:01:21.722Z,9.10
2022-09-12T06:03:54.639Z,16.10
2022-09-12T06:06:27.744Z,8.40
2022-09-12T06:09:01.426Z,12.70
2022-09-12T06:11:34.886Z,8.70
2022-09-12T06:14:06.748Z,9.90
2022-09-12T06:16:38.916Z,12.20
2022-09-12T06:19:16.820Z,8.80
2022-09-12T06:21:49.420Z,10.10
2022-09-12T06:24:22.191Z,11.40
2022-09-12T06:26:53.675Z,9.10
2022-09-12T06:29:26.654Z,10.40
2022-09-12T06:31:58.079Z,11.40
2022-09-12T06:34:31.006Z,10.60
2022-09-12T06:37:03.943Z,9.10
2022-09-12T06:39:36.585Z,10.90
2022-09-12T06:42:08.312Z,10.20
2022-09-12T06:44:41.222Z,11.20
2022-09-12T06:47:13.072Z,10.80
2022-09-12T06:49:44.762Z,9.90
2022-09-12T06:52:16.194Z,9.00
2022-09-12T06:57:18.116Z,9.00
2022-09-12T07:02:19.465Z,12.20
2022-09-12T07:07:24.177Z,8.50
2022-09-12T07:09:57.675Z,12.40
2022-09-12T07:12:30.041Z,9.70
2022-09-12T07:15:01.551Z,14.40
2022-09-12T07:20:03.072Z,8.40
2022-09-12T07:22:34.659Z,8.60
2022-09-12T07:27:37.681Z,8.80
2022-09-12T07:30:10.463Z,8.20
2022-09-12T07:32:41.926Z,9.70
2022-09-12T07:37:43.597Z,8.80
2022-09-12T07:40:15.186Z,11.80
2022-09-12T07:42:47.807Z,8.30
2022-09-12T07:45:19.245Z,8.70
2022-09-12T07:50:20.986Z,9.80
2022-09-12T07:55:22.498Z,7.10
2022-09-12T07:57:53.904Z,9.40
2022-09-12T08:02:56.609Z,6.50
2022-09-12T08:05:30.964Z,7.20
2022-09-12T08:08:02.428Z,9.60
2022-09-12T08:13:03.913Z,9.40
2022-09-12T08:15:37.095Z,11.90
2022-09-12T08:18:08.728Z,7.30
2022-09-12T08:20:40.199Z,6.10
2022-09-12T08:25:42.119Z,9.80
2022-09-12T08:30:43.531Z,10.40
2022-09-12T08:33:15.279Z,10.70
2022-09-12T08:35:46.784Z,8.30
2022-09-12T08:40:59.428Z,8.00
2022-09-12T08:43:44.139Z,5.70
2022-09-12T08:46:23.699Z,7.10
2022-09-12T08:48:57.082Z,8.00
2022-09-12T08:51:31.179Z,7.10
2022-09-12T08:54:03.686Z,11.40
2022-09-12T08:56:39.959Z,8.50
2022-09-12T08:59:11.798Z,7.40
2022-09-12T09:01:51.914Z,5.40
2022-09-12T09:04:37.387Z,7.50
2022-09-12T09:07:22.091Z,7.80
2022-09-12T09:10:09.143Z,7.80
2022-09-12T09:12:53.001Z,9.20
2022-09-12T09:15:49.454Z,9.30
2022-09-12T09:18:25.014Z,7.80
2022-09-12T09:21:01.144Z,7.20
2022-09-12T09:23:36.043Z,8.30
2022-09-12T09:26:14.676Z,7.40
2022-09-12T09:28:51.349Z,10.90
2022-09-12T09:31:24.953Z,9.70
2022-09-12T09:33:58.589Z,7.90
2022-09-12T09:36:42.131Z,10.80
2022-09-12T09:39:25.595Z,6.70
2022-09-12T09:42:09.736Z,8.10
2022-09-12T09:44:41.573Z,7.70
2022-09-12T09:47:13.561Z,13.50
2022-09-12T09:49:45.098Z,9.20
2022-09-12T09:52:17.790Z,8.70
2022-09-12T09:54:54.530Z,9.60
2022-09-12T09:57:47.609Z,7.50
2022-09-12T10:00:33.847Z,6.00
2022-09-12T10:03:25.518Z,6.60
2022-09-12T10:08:31.597Z,8.00
2022-09-12T10:11:06.138Z,8.20
2022-09-12T10:13:41.873Z,7.10
2022-09-12T10:16:24.660Z,8.20
2022-09-12T10:18:58.070Z,8.60
2022-09-12T10:21:40.216Z,9.10
2022-09-12T10:24:22.918Z,8.00
2022-09-12T10:26:57.701Z,5.70
2022-09-12T10:29:32.480Z,5.70
2022-09-12T10:32:07.134Z,8.10
2022-09-12T10:34:43.041Z,8.00
2022-09-12T10:37:24.581Z,8.00
2022-09-12T10:39:59.045Z,7.70
2022-09-12T10:42:54.461Z,9.00
2022-09-12T10:45:30.015Z,6.20
2022-09-12T10:48:07.376Z,6.80
2022-09-12T10:50:43.480Z,6.80
2022-09-12T10:53:22.841Z,5.60
2022-09-12T10:56:07.867Z,6.70
2022-09-12T10:59:03.815Z,8.40
2022-09-12T11:01:44.272Z,5.30
2022-09-12T11:04:28.205Z,5.60
2022-09-12T11:07:15.536Z,5.50
2022-09-12T11:09:56.483Z,5.20
2022-09-12T11:12:33.975Z,5.70
2022-09-12T11:15:20.114Z,6.90
2022-09-12T11:17:57.649Z,6.50
2022-09-12T11:20:55.007Z,6.30
2022-09-12T11:23:47.006Z,5.30
2022-09-12T11:26:48.683Z,6.60
2022-09-12T11:32:22.723Z,8.00
2022-09-12T11:35:03.548Z,5.80
2022-09-12T11:37:53.268Z,8.00
2022-09-12T11:40:33.582Z,5.60
2022-09-12T11:43:12.886Z,6.20
2022-09-12T11:45:46.931Z,5.60
2022-09-12T11:48:27.985Z,8.40
2022-09-12T11:51:01.699Z,7.20
2022-09-12T11:53:37.589Z,4.80
2022-09-12T11:56:15.460Z,5.90
2022-09-12T11:58:52.717Z,6.80
2022-09-12T12:01:28.810Z,9.00
2022-09-12T12:04:07.612Z,8.60
2022-09-12T12:06:49.353Z,5.50
2022-09-12T12:09:20.918Z,6.90
2022-09-12T12:11:57.619Z,6.70
2022-09-12T12:14:39.399Z,10.40
2022-09-12T12:17:18.389Z,6.90
2022-09-12T12:20:02.155Z,7.70
2022-09-12T12:22:36.485Z,5.70
2022-09-12T12:25:29.993Z,7.00
2022-09-12T12:28:04.266Z,5.50
2022-09-12T12:31:02.957Z,6.40
2022-09-12T12:34:11.810Z,8.10
2022-09-12T12:36:50.289Z,7.50
2022-09-12T12:39:55.609Z,9.30
2022-09-12T12:43:02.598Z,7.10
2022-09-12T12:45:59.613Z,8.10
2022-09-12T12:48:35.325Z,5.90
2022-09-12T12:51:27.267Z,6.40
2022-09-12T12:54:00.410Z,7.40
2022-09-12T12:56:40.066Z,6.10
2022-09-12T12:59:24.150Z,6.10
2022-09-12T13:01:59.962Z,6.10
2022-09-12T13:04:33.989Z,6.10
2022-09-12T13:07:09.025Z,6.90
2022-09-12T13:09:48.351Z,7.40
2022-09-12T13:12:24.971Z,6.20
2022-09-12T13:15:00.851Z,7.90
2022-09-12T13:17:38.558Z,7.70
2022-09-12T13:20:28.197Z,7.30
2022-09-12T13:23:00.720Z,7.50
2022-09-12T13:25:34.730Z,7.20
2022-09-12T13:28:15.721Z,7.60
2022-09-12T13:30:50.112Z,6.20
2022-09-12T13:33:27.463Z,6.80
2022-09-12T13:36:31.870Z,6.50
2022-09-12T13:39:18.591Z,5.30
2022-09-12T13:42:18.610Z,6.20
2022-09-12T13:44:54.052Z,7.60
2022-09-12T13:47:29.496Z,6.90
2022-09-12T13:50:02.785Z,8.30
2022-09-12T13:52:36.266Z,5.40
2022-09-12T13:55:16.011Z,8.60
2022-09-12T13:57:56.958Z,8.60
2022-09-12T14:00:31.670Z,6.90
2022-09-12T14:03:23.213Z,8.00
2022-09-12T14:08:30.267Z,8.90
2022-09-12T14:11:08.531Z,8.00
2022-09-12T14:13:40.676Z,6.80
2022-09-12T14:16:13.286Z,6.10
2022-09-12T14:18:48.378Z,6.50
2022-09-12T14:21:34.100Z,7.00
2022-09-12T14:24:08.536Z,5.30
2022-09-12T14:26:41.775Z,5.60
2022-09-12T14:29:17.822Z,7.70
2022-09-12T14:32:00.817Z,6.20
2022-09-12T14:34:32.429Z,7.30
2022-09-12T14:37:08.614Z,7.40
2022-09-12T14:39:45.622Z,8.40
2022-09-12T14:42:19.872Z,10.30
2022-09-12T14:45:00.165Z,9.90
2022-09-12T14:47:41.407Z,7.00
2022-09-12T14:50:19.585Z,6.20
2022-09-12T14:53:06.134Z,6.80
2022-09-12T14:55:46.245Z,6.50
2022-09-12T14:58:28.196Z,7.50
2022-09-12T15:01:04.609Z,7.40
2022-09-12T15:03:38.508Z,5.60
2022-09-12T15:06:25.542Z,7.20
2022-09-12T15:08:58.821Z,6.40
2022-09-12T15:11:30.490Z,9.00
2022-09-12T15:14:13.867Z,8.00
2022-09-12T15:16:45.873Z,7.00
2022-09-12T15:19:17.734Z,14.80
2022-09-12T15:21:53.849Z,6.20
2022-09-12T15:24:25.552Z,9.00
2022-09-12T15:26:57.061Z,10.80
2022-09-12T15:29:28.586Z,9.20
2022-09-12T15:32:00.056Z,6.60
2022-09-12T15:34:31.742Z,8.20
2022-09-12T15:37:03.144Z,9.40
2022-09-12T15:42:04.757Z,7.20
2022-09-12T15:44:36.445Z,8.60
2022-09-12T15:47:11.401Z,7.60
2022-09-12T15:49:42.879Z,6.80
2022-09-12T15:52:17.412Z,6.40
2022-09-12T15:54:49.059Z,8.00
2022-09-12T15:57:20.500Z,8.70
2022-09-12T15:59:52.648Z,8.80
2022-09-12T16:02:24.282Z,8.00
2022-09-12T16:04:55.768Z,10.00
2022-09-12T16:07:27.470Z,8.20
2022-09-12T16:09:59.046Z,7.70
2022-09-12T16:12:30.641Z,8.60
2022-09-12T16:15:02.572Z,7.40
2022-09-12T16:17:34.049Z,8.40
2022-09-12T16:20:06.640Z,8.70
2022-09-12T16:22:38.538Z,7.50
2022-09-12T16:25:11.174Z,7.30
2022-09-12T16:27:42.898Z,9.70
2022-09-12T16:30:14.845Z,10.50
2022-09-12T16:32:46.568Z,8.20
2022-09-12T16:35:18.315Z,7.40
2022-09-12T16:37:49.926Z,8.30
2022-09-12T16:40:21.488Z,7.00
2022-09-12T16:42:53.009Z,7.70
2022-09-12T16:45:24.497Z,9.10
2022-09-12T16:47:55.914Z,8.70
2022-09-12T16:52:57.399Z,7.90
2022-09-12T16:55:32.239Z,7.40
2022-09-12T16:58:04.016Z,9.30
2022-09-12T17:00:35.331Z,11.90
2022-09-12T17:03:06.823Z,9.80
2022-09-12T17:05:38.287Z,8.80
2022-09-12T17:08:09.995Z,10.40
2022-09-12T17:10:44.248Z,11.10
2022-09-12T17:13:15.736Z,13.90
2022-09-12T17:15:47.431Z,11.00
2022-09-12T17:18:19.077Z,11.20
2022-09-12T17:20:50.885Z,8.50
2022-09-12T17:23:22.515Z,9.00
2022-09-12T17:25:54.587Z,10.70
2022-09-12T17:28:26.282Z,8.70
2022-09-12T17:31:02.823Z,9.10
2022-09-12T17:33:35.696Z,9.50
2022-09-12T17:36:10.557Z,10.70
2022-09-12T17:38:43.185Z,10.50
2022-09-12T17:41:17.902Z,10.90
2022-09-12T17:43:51.805Z,9.70
2022-09-12T17:46:24.923Z,10.60
2022-09-12T17:48:58.389Z,9.20
2022-09-12T17:51:31.770Z,9.20
2022-09-12T17:54:08.804Z,10.30
2022-09-12T17:56:50.070Z,11.20
2022-09-12T17:59:24.968Z,11.10
2022-09-12T18:02:16.308Z,13.60
2022-09-12T18:04:49.030Z,10.10
2022-09-12T18:07:22.286Z,11.60
2022-09-12T18:09:55.289Z,12.70
2022-09-12T18:12:28.890Z,12.50
2022-09-12T18:15:00.692Z,13.00
2022-09-12T18:17:33.477Z,13.30
2022-09-12T18:20:06.470Z,12.90
2022-09-12T18:22:38.059Z,18.40
2022-09-12T18:25:11.180Z,20.10
2022-09-12T18:27:43.265Z,12.90
2022-09-12T18:30:22.828Z,15.20
2022-09-12T18:32:55.267Z,15.40
2022-09-12T18:35:28.276Z,15.60
2022-09-12T18:38:00.578Z,15.10
2022-09-12T18:40:42.827Z,16.50
2022-09-12T18:43:18.505Z,13.30
2022-09-12T18:45:53.319Z,12.90
2022-09-12T18:48:27.030Z,12.50
2022-09-12T18:51:05.936Z,15.80
2022-09-12T18:53:38.497Z,12.80
2022-09-12T18:56:14.660Z,12.60
2022-09-12T18:58:51.446Z,12.50
2022-09-12T19:01:26.893Z,12.30
2022-09-12T19:03:59.163Z,13.70
2022-09-12T19:06:33.438Z,8.40
2022-09-12T19:09:07.982Z,11.80
2022-09-12T19:11:42.654Z,9.80
2022-09-12T19:14:14.279Z,12.60
2022-09-12T19:16:45.854Z,12.00
2022-09-12T19:19:17.825Z,12.20
2022-09-12T19:21:49.455Z,13.40
2022-09-12T19:24:21.935Z,10.30
2022-09-12T19:26:53.696Z,11.20
2022-09-12T19:29:25.318Z,10.00
2022-09-12T19:31:57.292Z,12.70
2022-09-12T19:34:28.946Z,10.70
2022-09-12T19:37:00.562Z,12.70
2022-09-12T19:39:32.629Z,14.40
2022-09-12T19:42:13.782Z,10.50
2022-09-12T19:44:45.345Z,10.20
2022-09-12T19:47:16.916Z,10.80
2022-09-12T19:49:48.721Z,9.80
2022-09-12T19:52:20.397Z,15.20
2022-09-12T19:54:51.929Z,11.10
2022-09-12T19:59:53.638Z,9.40
2022-09-12T20:02:27.932Z,12.50
2022-09-12T20:04:59.505Z,12.80
2022-09-12T20:07:31.016Z,10.30
2022-09-12T20:12:32.530Z,11.40
2022-09-12T20:17:34.325Z,12.10
2022-09-12T20:20:07.206Z,10.80
2022-09-12T20:22:40.246Z,9.40
2022-09-12T20:25:12.220Z,10.20
2022-09-12T20:27:44.024Z,12.80
2022-09-12T20:30:16.503Z,10.70
2022-09-12T20:32:48.047Z,8.40
2022-09-12T20:35:19.931Z,11.30
2022-09-12T20:37:51.428Z,8.10
2022-09-12T20:42:52.969Z,11.80
2022-09-12T20:47:54.390Z,9.20
2022-09-12T20:52:56.721Z,10.70
2022-09-12T20:55:32.782Z,10.70
2022-09-12T20:58:05.824Z,11.90
2022-09-12T21:00:39.089Z,12.40
2022-09-12T21:03:10.678Z,11.00
2022-09-12T21:08:12.729Z,11.00
2022-09-12T21:10:45.120Z,12.30
2022-09-12T21:13:19.230Z,10.40
2022-09-12T21:15:50.947Z,11.40
2022-09-12T21:18:22.818Z,15.40
2022-09-12T21:23:26.502Z,14.30
2022-09-12T21:25:59.454Z,12.40
2022-09-12T21:28:31.034Z,8.50
2022-09-12T21:33:32.864Z,10.10
2022-09-12T21:36:06.414Z,10.40
2022-09-12T21:38:38.233Z,12.20
2022-09-12T21:41:11.389Z,11.10
2022-09-12T21:43:43.536Z,13.00
2022-09-12T21:46:15.187Z,11.30
2022-09-12T21:48:46.733Z,11.00
2022-09-12T21:51:18.171Z,11.20
2022-09-12T21:53:49.758Z,10.50
2022-09-12T21:56:21.427Z,13.70
2022-09-12T21:58:52.849Z,9.60
2022-09-12T22:01:24.415Z,10.70
2022-09-12T22:03:55.913Z,11.80
2022-09-12T22:06:29.620Z,11.00
2022-09-12T22:09:01.017Z,11.00
2022-09-12T22:11:32.467Z,11.20
2022-09-12T22:14:03.905Z,15.30
2022-09-12T22:16:35.414Z,14.00
2022-09-12T22:21:57.155Z,11.40
2022-09-12T22:24:29.910Z,15.90
2022-09-12T22:27:05.633Z,11.90
2022-09-12T22:29:37.184Z,13.40
2022-09-12T22:34:41.877Z,14.80
2022-09-12T22:37:13.645Z,13.20
2022-09-12T22:39:45.097Z,11.30
2022-09-12T22:42:16.567Z,17.20
2022-09-12T22:47:19.992Z,15.20
2022-09-12T22:49:51.435Z,12.80
2022-09-12T22:52:22.889Z,20.70
2022-09-12T22:54:54.586Z,13.20
2022-09-12T22:57:26.110Z,12.20
2022-09-12T23:02:27.471Z,12.50
2022-09-12T23:04:59.144Z,12.90
2022-09-12T23:07:30.782Z,13.50
2022-09-12T23:12:33.407Z,13.40
2022-09-12T23:15:05.226Z,11.00
2022-09-12T23:17:36.625Z,12.60
2022-09-12T23:20:09.817Z,14.30
2022-09-12T23:22:41.297Z,8.40
2022-09-12T23:25:12.858Z,12.60
2022-09-12T23:30:21.515Z,13.30
2022-09-12T23:32:53.148Z,12.50
2022-09-12T23:35:24.592Z,13.30
2022-09-12T23:37:56.137Z,16.20
2022-09-12T23:42:57.704Z,18.10
2022-09-12T23:45:29.583Z,25.80
2022-09-12T23:48:01.073Z,14.20
2022-09-12T23:50:32.504Z,12.30
2022-09-12T23:53:07.221Z,13.80
2022-09-12T23:55:38.796Z,14.20
